createdAt,value
2022-08-19T00:00:36.930Z,10.49
2022-08-19T00:01:38.051Z,10.49
2022-08-19T00:02:36.946Z,10.28
2022-08-19T00:03:36.925Z,10.28
2022-08-19T00:04:36.975Z,10.12
2022-08-19T00:05:36.922Z,10.12
2022-08-19T00:06:36.930Z,10.45
2022-08-19T00:07:36.933Z,10.45
2022-08-19T00:08:36.921Z,10.09
2022-08-19T00:09:36.927Z,10.09
2022-08-19T00:10:36.922Z,10.8
2022-08-19T00:11:36.912Z,10.8
2022-08-19T00:12:36.912Z,10.66
2022-08-19T00:13:36.943Z,10.66
2022-08-19T00:14:36.912Z,10.18
2022-08-19T00:15:36.907Z,10.18
2022-08-19T00:16:36.912Z,10.13
2022-08-19T00:17:36.912Z,10.13
2022-08-19T00:18:36.920Z,10.52
2022-08-19T00:19:36.911Z,10.52
2022-08-19T00:20:36.903Z,11.43
2022-08-19T00:21:36.917Z,11.43
2022-08-19T00:22:36.899Z,10.47
2022-08-19T00:23:36.898Z,10.47
2022-08-19T00:24:36.893Z,9.48
2022-08-19T00:25:36.912Z,9.48
2022-08-19T00:26:36.904Z,10.77
2022-08-19T00:27:36.912Z,10.77
2022-08-19T00:28:36.895Z,10.51
2022-08-19T00:29:36.898Z,10.51
2022-08-19T00:30:36.905Z,10.27
2022-08-19T00:31:36.908Z,10.27
2022-08-19T00:32:36.892Z,10.66
2022-08-19T00:33:36.892Z,10.66
2022-08-19T00:34:36.887Z,9.9
2022-08-19T00:35:36.899Z,9.9
2022-08-19T00:36:36.884Z,10.82
2022-08-19T00:37:36.886Z,10.82
2022-08-19T00:38:37.470Z,10.55
2022-08-19T00:39:36.955Z,10.55
2022-08-19T00:40:36.889Z,9.57
2022-08-19T00:41:36.882Z,9.57
2022-08-19T00:42:36.892Z,11.6
2022-08-19T00:43:36.878Z,11.6
2022-08-19T00:44:36.886Z,9.98
2022-08-19T00:45:36.880Z,9.98
2022-08-19T00:46:36.884Z,10.69
2022-08-19T00:47:36.875Z,10.69
2022-08-19T00:48:36.869Z,11.01
2022-08-19T00:49:36.870Z,11.01
2022-08-19T00:50:36.880Z,10.21
2022-08-19T00:51:36.870Z,10.21
2022-08-19T00:52:36.879Z,11.16
2022-08-19T00:53:36.869Z,11.16
2022-08-19T00:54:36.865Z,10.27
2022-08-19T00:55:36.869Z,10.27
2022-08-19T00:56:36.867Z,10
2022-08-19T00:57:36.874Z,10
2022-08-19T00:58:36.869Z,11.16
2022-08-19T01:00:01.186Z,11.16
2022-08-19T01:00:36.862Z,9.84
2022-08-19T01:01:36.991Z,9.84
2022-08-19T01:02:36.886Z,9.91
2022-08-19T01:03:56.821Z,9.91
2022-08-19T01:04:36.850Z,11.13
2022-08-19T01:05:36.846Z,11.13
2022-08-19T01:06:36.867Z,10.02
2022-08-19T01:07:38.097Z,10.02
2022-08-19T01:08:36.853Z,10.16
2022-08-19T01:09:36.877Z,10.16
2022-08-19T01:10:37.048Z,9.1
2022-08-19T01:11:36.850Z,9.1
2022-08-19T01:12:36.853Z,10.96
2022-08-19T01:13:49.448Z,10.96
2022-08-19T01:14:36.843Z,9.28
2022-08-19T01:15:36.844Z,9.28
2022-08-19T01:16:36.846Z,10.49
2022-08-19T01:17:36.849Z,10.49
2022-08-19T01:18:36.849Z,9.78
2022-08-19T01:19:43.566Z,9.78
2022-08-19T01:20:36.844Z,11.42
2022-08-19T01:21:36.836Z,11.42
2022-08-19T01:22:36.832Z,9.46
2022-08-19T01:23:36.841Z,9.46
2022-08-19T01:24:36.835Z,9.02
2022-08-19T01:25:36.831Z,9.02
2022-08-19T01:26:36.835Z,9.85
2022-08-19T01:27:42.993Z,9.85
2022-08-19T01:28:40.165Z,11.21
2022-08-19T01:29:36.822Z,11.21
2022-08-19T01:30:36.828Z,10.25
2022-08-19T01:31:36.829Z,10.25
2022-08-19T01:32:36.838Z,9.88
2022-08-19T01:33:36.835Z,9.88
2022-08-19T01:34:36.833Z,9.45
2022-08-19T01:35:36.819Z,9.45
2022-08-19T01:36:36.816Z,10.99
2022-08-19T01:37:36.826Z,10.99
2022-08-19T01:38:36.817Z,10.36
2022-08-19T01:39:36.889Z,10.36
2022-08-19T01:40:36.826Z,9.87
2022-08-19T01:41:36.817Z,9.87
2022-08-19T01:42:36.807Z,10.03
2022-08-19T01:43:36.809Z,10.03
2022-08-19T01:44:36.809Z,10.09
2022-08-19T01:45:36.824Z,10.09
2022-08-19T01:46:36.805Z,10.09
2022-08-19T01:47:36.812Z,10.09
2022-08-19T01:48:36.797Z,10.41
2022-08-19T01:49:36.803Z,10.41
2022-08-19T01:50:36.820Z,10.66
2022-08-19T01:51:39.861Z,10.66
2022-08-19T01:52:36.809Z,9.99
2022-08-19T01:53:36.802Z,9.99
2022-08-19T01:54:36.799Z,10.14
2022-08-19T01:55:36.804Z,10.14
2022-08-19T01:56:36.792Z,9.31
2022-08-19T01:57:36.804Z,9.31
2022-08-19T01:58:36.792Z,10.56
2022-08-19T01:59:36.789Z,10.56
2022-08-19T02:00:36.788Z,10.27
2022-08-19T02:01:36.871Z,10.27
2022-08-19T02:02:36.823Z,10.73
2022-08-19T02:03:36.788Z,10.73
2022-08-19T02:04:36.789Z,10.52
2022-08-19T02:05:36.794Z,10.52
2022-08-19T02:06:36.786Z,10.75
2022-08-19T02:07:36.793Z,10.75
2022-08-19T02:08:36.778Z,10.89
2022-08-19T02:09:36.775Z,10.89
2022-08-19T02:10:36.779Z,9.22
2022-08-19T02:11:36.792Z,9.22
2022-08-19T02:12:36.782Z,10.13
2022-08-19T02:13:36.785Z,10.13
2022-08-19T02:14:36.772Z,10.36
2022-08-19T02:15:36.767Z,10.36
2022-08-19T02:16:36.777Z,10.54
2022-08-19T02:17:36.770Z,10.54
2022-08-19T02:18:36.777Z,10.12
2022-08-19T02:19:36.765Z,10.12
2022-08-19T02:20:36.763Z,10.19
2022-08-19T02:21:36.773Z,10.19
2022-08-19T02:22:36.770Z,8.76
2022-08-19T02:23:36.774Z,8.76
2022-08-19T02:24:36.758Z,9.8
2022-08-19T02:25:36.759Z,9.8
2022-08-19T02:26:36.765Z,9.48
2022-08-19T02:27:36.758Z,9.48
2022-08-19T02:28:36.765Z,9.99
2022-08-19T02:29:36.762Z,9.99
2022-08-19T02:30:36.757Z,10.31
2022-08-19T02:31:36.769Z,10.31
2022-08-19T02:32:44.494Z,10.52
2022-08-19T02:33:36.746Z,10.52
2022-08-19T02:34:36.749Z,9.98
2022-08-19T02:35:36.752Z,9.98
2022-08-19T02:36:36.755Z,10.12
2022-08-19T02:37:36.748Z,10.12
2022-08-19T02:38:36.746Z,9.89
2022-08-19T02:39:36.782Z,9.89
2022-08-19T02:40:36.747Z,10.25
2022-08-19T02:41:36.749Z,10.25
2022-08-19T02:42:36.741Z,10.21
2022-08-19T02:43:36.743Z,10.21
2022-08-19T02:44:36.744Z,10.27
2022-08-19T02:45:36.742Z,10.27
2022-08-19T02:46:36.759Z,10.05
2022-08-19T02:47:36.756Z,10.05
2022-08-19T02:48:36.761Z,9.5
2022-08-19T02:49:36.745Z,9.5
2022-08-19T02:50:36.747Z,11.05
2022-08-19T02:51:36.749Z,11.05
2022-08-19T02:52:36.744Z,10.1
2022-08-19T02:53:36.754Z,10.1
2022-08-19T02:54:36.746Z,9.92
2022-08-19T02:55:46.253Z,9.92
2022-08-19T02:56:36.745Z,9.3
2022-08-19T02:57:36.753Z,9.3
2022-08-19T02:58:36.743Z,9.96
2022-08-19T02:59:36.741Z,9.96
2022-08-19T03:00:36.737Z,10.66
2022-08-19T03:01:36.803Z,10.66
2022-08-19T03:02:36.772Z,9.53
2022-08-19T03:03:36.733Z,9.53
2022-08-19T03:04:36.740Z,10.08
2022-08-19T03:05:47.992Z,10.08
2022-08-19T03:06:36.720Z,10.75
2022-08-19T03:07:36.736Z,10.75
2022-08-19T03:08:36.737Z,9.64
2022-08-19T03:09:36.729Z,9.64
2022-08-19T03:10:36.725Z,9.52
2022-08-19T03:11:36.718Z,9.52
2022-08-19T03:12:36.728Z,9.71
2022-08-19T03:13:36.716Z,9.71
2022-08-19T03:14:36.722Z,9.55
2022-08-19T03:15:36.719Z,9.55
2022-08-19T03:16:36.714Z,9.62
2022-08-19T03:17:36.723Z,9.62
2022-08-19T03:18:36.711Z,9.9
2022-08-19T03:19:36.716Z,9.9
2022-08-19T03:20:36.708Z,9.41
2022-08-19T03:21:36.710Z,9.41
2022-08-19T03:22:36.715Z,10.56
2022-08-19T03:23:36.709Z,10.56
2022-08-19T03:24:36.705Z,10.12
2022-08-19T03:25:36.712Z,10.12
2022-08-19T03:26:36.705Z,10.41
2022-08-19T03:27:36.701Z,10.41
2022-08-19T03:28:36.708Z,10.23
2022-08-19T03:29:40.660Z,10.23
2022-08-19T03:30:36.712Z,9.98
2022-08-19T03:31:44.156Z,9.98
2022-08-19T03:32:36.697Z,9.14
2022-08-19T03:33:36.693Z,9.14
2022-08-19T03:34:36.702Z,9.01
2022-08-19T03:35:36.688Z,9.01
2022-08-19T03:36:36.693Z,10.02
2022-08-19T03:37:36.688Z,10.02
2022-08-19T03:38:36.691Z,9.33
2022-08-19T03:39:36.757Z,9.33
2022-08-19T03:40:36.696Z,9.07
2022-08-19T03:41:45.196Z,9.07
2022-08-19T03:42:49.368Z,10
2022-08-19T03:43:36.685Z,10
2022-08-19T03:44:36.693Z,9.21
2022-08-19T03:45:36.683Z,9.21
2022-08-19T03:46:36.688Z,10.36
2022-08-19T03:47:36.679Z,10.36
2022-08-19T03:48:36.678Z,9.17
2022-08-19T03:49:36.848Z,9.17
2022-08-19T03:50:36.682Z,9.02
2022-08-19T03:51:36.678Z,9.02
2022-08-19T03:52:36.680Z,9.33
2022-08-19T03:53:36.676Z,9.33
2022-08-19T03:54:36.679Z,9.21
2022-08-19T03:55:36.674Z,9.21
2022-08-19T03:56:36.671Z,9.13
2022-08-19T03:57:37.862Z,9.13
2022-08-19T03:58:36.677Z,9.01
2022-08-19T03:59:36.678Z,9.01
2022-08-19T04:00:36.663Z,10.51
2022-08-19T04:01:36.750Z,10.51
2022-08-19T04:02:36.697Z,10.55
2022-08-19T04:03:36.661Z,10.55
2022-08-19T04:04:36.671Z,9.56
2022-08-19T04:05:36.657Z,9.56
2022-08-19T04:06:39.596Z,9.07
2022-08-19T04:07:36.672Z,9.07
2022-08-19T04:08:36.666Z,8.79
2022-08-19T04:09:36.655Z,8.79
2022-08-19T04:10:36.660Z,9.53
2022-08-19T04:11:43.389Z,9.53
2022-08-19T04:12:36.657Z,8.76
2022-08-19T04:13:36.652Z,8.76
2022-08-19T04:14:36.654Z,9.57
2022-08-19T04:15:36.647Z,9.57
2022-08-19T04:16:36.645Z,8.93
2022-08-19T04:17:36.642Z,8.93
2022-08-19T04:18:36.651Z,8.6
2022-08-19T04:19:36.647Z,8.6
2022-08-19T04:20:36.647Z,9.95
2022-08-19T04:21:36.645Z,9.95
2022-08-19T04:22:36.650Z,9.52
2022-08-19T04:23:36.636Z,9.52
2022-08-19T04:24:36.641Z,8.93
2022-08-19T04:25:36.641Z,8.93
2022-08-19T04:26:36.631Z,8.69
2022-08-19T04:27:36.650Z,8.69
2022-08-19T04:28:36.635Z,9.6
2022-08-19T04:29:36.649Z,9.6
2022-08-19T04:30:36.631Z,9.4
2022-08-19T04:31:36.633Z,9.4
2022-08-19T04:32:36.634Z,9.01
2022-08-19T04:33:36.638Z,9.01
2022-08-19T04:34:36.632Z,8.93
2022-08-19T04:35:36.630Z,8.93
2022-08-19T04:36:36.621Z,9.46
2022-08-19T04:37:36.625Z,9.46
2022-08-19T04:38:36.625Z,9.24
2022-08-19T04:39:36.679Z,9.24
2022-08-19T04:40:36.623Z,9.72
2022-08-19T04:41:36.618Z,9.72
2022-08-19T04:42:36.618Z,8.45
2022-08-19T04:43:36.613Z,8.45
2022-08-19T04:44:36.616Z,9.48
2022-08-19T04:45:43.513Z,9.48
2022-08-19T04:46:39.218Z,9.48
2022-08-19T04:47:47.998Z,9.48
2022-08-19T04:48:36.614Z,9.69
2022-08-19T04:49:36.618Z,9.69
2022-08-19T04:50:36.603Z,9.35
2022-08-19T04:51:36.615Z,9.35
2022-08-19T04:52:36.602Z,8.36
2022-08-19T04:53:37.535Z,8.36
2022-08-19T04:54:38.497Z,9.1
2022-08-19T04:55:38.323Z,9.1
2022-08-19T04:56:36.613Z,9.22
2022-08-19T04:57:36.598Z,9.22
2022-08-19T04:58:36.599Z,9.68
2022-08-19T04:59:36.601Z,9.68
2022-08-19T05:00:36.653Z,8.6
2022-08-19T05:01:36.622Z,8.6
2022-08-19T05:02:36.610Z,9.39
2022-08-19T05:03:36.590Z,9.39
2022-08-19T05:04:36.589Z,9.33
2022-08-19T05:05:44.652Z,9.33
2022-08-19T05:06:36.593Z,9.25
2022-08-19T05:07:36.594Z,9.25
2022-08-19T05:08:36.590Z,9.29
2022-08-19T05:09:57.136Z,9.29
2022-08-19T05:10:36.586Z,8.99
2022-08-19T05:11:36.609Z,8.99
2022-08-19T05:12:36.579Z,8.72
2022-08-19T05:13:36.605Z,8.72
2022-08-19T05:14:36.589Z,9.71
2022-08-19T05:15:36.584Z,9.71
2022-08-19T05:16:36.586Z,9.02
2022-08-19T05:17:38.886Z,9.02
2022-08-19T05:18:36.575Z,8.53
2022-08-19T05:19:36.567Z,8.53
2022-08-19T05:20:36.574Z,9.6
2022-08-19T05:21:36.584Z,9.6
2022-08-19T05:22:36.575Z,8.81
2022-08-19T05:23:36.563Z,8.81
2022-08-19T05:24:47.432Z,10.55
2022-08-19T05:25:36.568Z,10.55
2022-08-19T05:26:36.577Z,8.94
2022-08-19T05:27:36.566Z,8.94
2022-08-19T05:28:36.595Z,9.51
2022-08-19T05:29:36.703Z,9.51
2022-08-19T05:30:46.844Z,9.71
2022-08-19T05:31:36.581Z,9.71
2022-08-19T05:32:36.567Z,9.26
2022-08-19T05:33:36.555Z,9.26
2022-08-19T05:34:36.551Z,9.82
2022-08-19T05:35:36.554Z,9.82
2022-08-19T05:36:36.565Z,9.81
2022-08-19T05:37:36.549Z,9.81
2022-08-19T05:38:36.564Z,8.34
2022-08-19T05:39:36.639Z,8.34
2022-08-19T05:40:36.545Z,8.7
2022-08-19T05:41:36.543Z,8.7
2022-08-19T05:42:36.558Z,8.84
2022-08-19T05:43:36.544Z,8.84
2022-08-19T05:44:36.542Z,9.29
2022-08-19T05:45:36.546Z,9.29
2022-08-19T05:46:36.548Z,9.06
2022-08-19T05:47:36.560Z,9.06
2022-08-19T05:48:36.572Z,9.95
2022-08-19T05:49:36.547Z,9.95
2022-08-19T05:50:36.548Z,8.48
2022-08-19T05:51:36.537Z,8.48
2022-08-19T05:52:36.539Z,8.96
2022-08-19T05:53:36.532Z,8.96
2022-08-19T05:54:36.542Z,9.18
2022-08-19T05:55:36.529Z,9.18
2022-08-19T05:56:36.531Z,8.94
2022-08-19T05:57:36.541Z,8.94
2022-08-19T05:58:36.530Z,8.71
2022-08-19T05:59:36.534Z,8.71
2022-08-19T06:00:36.531Z,9.02
2022-08-19T06:01:36.530Z,9.02
2022-08-19T06:02:36.562Z,9.45
2022-08-19T06:03:36.545Z,9.45
2022-08-19T06:04:36.526Z,8.61
2022-08-19T06:05:42.315Z,8.61
2022-08-19T06:06:36.530Z,9.56
2022-08-19T06:07:36.523Z,9.56
2022-08-19T06:08:36.510Z,7.84
2022-08-19T06:09:36.543Z,7.84
2022-08-19T06:10:36.516Z,9.43
2022-08-19T06:11:36.515Z,9.43
2022-08-19T06:12:36.513Z,9.28
2022-08-19T06:13:36.510Z,9.28
2022-08-19T06:14:36.523Z,9.38
2022-08-19T06:15:36.507Z,9.38
2022-08-19T06:16:36.505Z,9.33
2022-08-19T06:17:36.501Z,9.33
2022-08-19T06:18:36.507Z,9.71
2022-08-19T06:19:40.564Z,9.71
2022-08-19T06:20:55.071Z,8.61
2022-08-19T06:21:36.506Z,8.61
2022-08-19T06:22:36.515Z,9.9
2022-08-19T06:23:36.500Z,9.9
2022-08-19T06:24:36.512Z,9.9
2022-08-19T06:25:36.513Z,9.9
2022-08-19T06:26:36.607Z,9.54
2022-08-19T06:27:37.850Z,9.54
2022-08-19T06:28:36.507Z,9.74
2022-08-19T06:29:36.493Z,9.74
2022-08-19T06:30:36.497Z,9.46
2022-08-19T06:31:36.499Z,9.46
2022-08-19T06:32:39.897Z,9.63
2022-08-19T06:33:36.511Z,9.63
2022-08-19T06:34:36.483Z,9.13
2022-08-19T06:35:36.534Z,9.13
2022-08-19T06:36:36.487Z,9.48
2022-08-19T06:37:37.878Z,9.48
2022-08-19T06:38:36.484Z,9.16
2022-08-19T06:39:36.556Z,9.16
2022-08-19T06:40:36.566Z,9.82
2022-08-19T06:41:39.459Z,9.82
2022-08-19T06:42:36.478Z,9.57
2022-08-19T06:43:36.488Z,9.57
2022-08-19T06:44:40.587Z,9.27
2022-08-19T06:45:39.406Z,9.27
2022-08-19T06:46:36.493Z,8.67
2022-08-19T06:47:36.489Z,8.67
2022-08-19T06:48:45.002Z,9.8
2022-08-19T06:49:36.467Z,9.8
2022-08-19T06:50:39.612Z,9.27
2022-08-19T06:51:36.551Z,9.27
2022-08-19T06:52:38.174Z,9.15
2022-08-19T06:53:36.466Z,9.15
2022-08-19T06:54:37.749Z,9.52
2022-08-19T06:55:36.464Z,9.52
2022-08-19T06:56:36.462Z,9.68
2022-08-19T06:57:36.470Z,9.68
2022-08-19T06:58:36.483Z,9.23
2022-08-19T06:59:36.470Z,9.23
2022-08-19T07:00:36.457Z,9.26
2022-08-19T07:01:36.461Z,9.26
2022-08-19T07:02:36.472Z,9.05
2022-08-19T07:03:37.341Z,9.05
2022-08-19T07:04:36.459Z,8.79
2022-08-19T07:05:36.444Z,8.79
2022-08-19T07:06:43.945Z,9.23
2022-08-19T07:07:36.460Z,9.23
2022-08-19T07:09:36.444Z,9.15
2022-08-19T07:10:36.456Z,8.95
2022-08-19T07:11:36.438Z,8.95
2022-08-19T07:12:38.171Z,9.07
2022-08-19T07:13:36.437Z,9.07
2022-08-19T07:14:36.449Z,9.36
2022-08-19T07:15:36.443Z,9.36
2022-08-19T07:16:37.357Z,8.36
2022-08-19T07:17:36.449Z,8.36
2022-08-19T07:18:36.434Z,9.53
2022-08-19T07:19:36.432Z,9.53
2022-08-19T07:20:36.444Z,8.8
2022-08-19T07:21:37.595Z,8.8
2022-08-19T07:22:36.450Z,10.59
2022-08-19T07:24:36.443Z,9.81
2022-08-19T07:25:36.456Z,9.81
2022-08-19T07:26:36.431Z,10.45
2022-08-19T07:27:36.425Z,10.45
2022-08-19T07:28:36.428Z,9.79
2022-08-19T07:29:36.441Z,9.79
2022-08-19T07:30:36.509Z,10.27
2022-08-19T07:31:36.426Z,10.27
2022-08-19T07:32:36.432Z,9.5
2022-08-19T07:33:36.432Z,9.5
2022-08-19T07:34:36.420Z,9.66
2022-08-19T07:35:36.425Z,9.66
2022-08-19T07:36:36.411Z,10.59
2022-08-19T07:37:36.418Z,10.59
2022-08-19T07:38:36.426Z,8.89
2022-08-19T07:39:36.487Z,8.89
2022-08-19T07:40:36.414Z,9.94
2022-08-19T07:41:36.411Z,9.94
2022-08-19T07:42:36.402Z,10.21
2022-08-19T07:43:36.426Z,10.21
2022-08-19T07:44:36.495Z,11.31
2022-08-19T07:45:36.406Z,11.31
2022-08-19T07:46:36.409Z,10.73
2022-08-19T07:47:50.347Z,10.73
2022-08-19T07:48:36.415Z,10.12
2022-08-19T07:49:36.405Z,10.12
2022-08-19T07:50:36.400Z,9.28
2022-08-19T07:51:37.273Z,9.28
2022-08-19T07:52:36.396Z,10.25
2022-08-19T07:53:39.636Z,10.25
2022-08-19T07:54:36.399Z,9.66
2022-08-19T07:55:41.131Z,9.66
2022-08-19T07:56:36.395Z,9.46
2022-08-19T07:57:36.469Z,9.46
2022-08-19T07:58:36.408Z,9.17
2022-08-19T07:59:36.387Z,9.17
2022-08-19T08:00:36.388Z,9.09
2022-08-19T08:01:36.421Z,9.09
2022-08-19T08:02:36.404Z,10.14
2022-08-19T08:03:36.419Z,10.14
2022-08-19T08:04:36.382Z,9.21
2022-08-19T08:05:38.749Z,9.21
2022-08-19T08:06:36.401Z,8.65
2022-08-19T08:07:36.373Z,8.65
2022-08-19T08:08:36.383Z,9.15
2022-08-19T08:09:39.272Z,9.15
2022-08-19T08:10:36.381Z,9.25
2022-08-19T08:11:36.388Z,9.25
2022-08-19T08:12:36.390Z,8.04
2022-08-19T08:13:36.367Z,8.04
2022-08-19T08:14:36.366Z,9
2022-08-19T08:15:41.308Z,9
2022-08-19T08:16:39.414Z,9.69
2022-08-19T08:17:49.477Z,9.69
2022-08-19T08:18:36.381Z,9.67
2022-08-19T08:19:36.369Z,9.67
2022-08-19T08:20:36.362Z,9.73
2022-08-19T08:21:36.445Z,9.73
2022-08-19T08:22:36.376Z,9.24
2022-08-19T08:23:36.375Z,9.24
2022-08-19T08:24:36.355Z,9.96
2022-08-19T08:25:36.393Z,9.96
2022-08-19T08:26:36.356Z,9.91
2022-08-19T08:27:36.355Z,9.91
2022-08-19T08:28:36.369Z,8.11
2022-08-19T08:29:36.354Z,8.11
2022-08-19T08:30:36.353Z,9.93
2022-08-19T08:31:36.348Z,9.93
2022-08-19T08:32:36.344Z,10
2022-08-19T08:33:36.360Z,10
2022-08-19T08:34:36.350Z,9.5
2022-08-19T08:35:36.347Z,9.5
2022-08-19T08:36:36.362Z,9.01
2022-08-19T08:37:36.340Z,9.01
2022-08-19T08:38:39.683Z,9.55
2022-08-19T08:39:36.381Z,9.55
2022-08-19T08:40:36.343Z,9.12
2022-08-19T08:41:36.345Z,9.12
2022-08-19T08:42:36.344Z,9.63
2022-08-19T08:43:36.353Z,9.63
2022-08-19T08:44:36.340Z,9.72
2022-08-19T08:45:41.184Z,9.72
2022-08-19T08:46:36.329Z,9.45
2022-08-19T08:47:36.357Z,9.45
2022-08-19T08:48:36.340Z,9.43
2022-08-19T08:49:36.334Z,9.43
2022-08-19T08:50:36.349Z,8.13
2022-08-19T08:51:36.390Z,8.13
2022-08-19T08:52:36.389Z,9.75
2022-08-19T08:53:40.451Z,9.75
2022-08-19T08:54:36.378Z,9.78
2022-08-19T08:55:36.865Z,9.78
2022-08-19T08:56:36.332Z,9.74
2022-08-19T08:57:40.820Z,9.74
2022-08-19T08:58:36.359Z,9.25
2022-08-19T08:59:36.359Z,9.25
2022-08-19T09:00:36.349Z,10.66
2022-08-19T09:01:36.369Z,10.66
2022-08-19T09:02:36.354Z,10.33
2022-08-19T09:03:36.373Z,10.33
2022-08-19T09:04:36.337Z,10.11
2022-08-19T09:05:39.524Z,10.11
2022-08-19T09:06:36.337Z,8.81
2022-08-19T09:07:38.016Z,8.81
2022-08-19T09:08:36.338Z,9.85
2022-08-19T09:09:36.331Z,9.85
2022-08-19T09:10:36.342Z,9.89
2022-08-19T09:11:42.386Z,9.89
2022-08-19T09:12:36.342Z,9.53
2022-08-19T09:13:37.370Z,9.53
2022-08-19T09:14:52.031Z,9.63
2022-08-19T09:15:36.845Z,9.63
2022-08-19T09:16:36.318Z,10.44
2022-08-19T09:17:36.544Z,10.44
2022-08-19T09:18:36.340Z,9.71
2022-08-19T09:19:36.326Z,9.71
2022-08-19T09:20:36.313Z,9.79
2022-08-19T09:21:36.316Z,9.79
2022-08-19T09:22:36.331Z,10.33
2022-08-19T09:23:36.320Z,10.33
2022-08-19T09:24:36.329Z,9.3
2022-08-19T09:25:36.327Z,9.3
2022-08-19T09:26:47.552Z,11.07
2022-08-19T09:27:42.723Z,11.07
2022-08-19T09:28:36.308Z,9.72
2022-08-19T09:29:36.306Z,9.72
2022-08-19T09:30:36.328Z,10.34
2022-08-19T09:31:36.306Z,10.34
2022-08-19T09:32:36.326Z,10.92
2022-08-19T09:33:36.306Z,10.92
2022-08-19T09:34:37.929Z,11.62
2022-08-19T09:35:50.115Z,11.62
2022-08-19T09:36:36.316Z,9.59
2022-08-19T09:37:36.314Z,9.59
2022-08-19T09:38:36.296Z,10.6
2022-08-19T09:39:36.299Z,10.6
2022-08-19T09:40:38.514Z,11.19
2022-08-19T09:41:36.298Z,11.19
2022-08-19T09:42:36.298Z,10.87
2022-08-19T09:43:44.600Z,10.87
2022-08-19T09:44:36.310Z,10.25
2022-08-19T09:45:36.292Z,10.25
2022-08-19T09:46:36.292Z,10.46
2022-08-19T09:47:36.317Z,10.46
2022-08-19T09:48:36.307Z,10.89
2022-08-19T09:49:36.315Z,10.89
2022-08-19T09:50:36.284Z,11.39
2022-08-19T09:51:36.289Z,11.39
2022-08-19T09:52:36.295Z,9.17
2022-08-19T09:53:36.295Z,9.17
2022-08-19T09:54:37.077Z,10.58
2022-08-19T09:55:36.285Z,10.58
2022-08-19T09:56:36.293Z,10.6
2022-08-19T09:57:36.274Z,10.6
2022-08-19T09:58:36.294Z,11.04
2022-08-19T09:59:36.288Z,11.04
2022-08-19T10:00:36.274Z,10.85
2022-08-19T10:01:36.286Z,10.85
2022-08-19T10:02:36.276Z,9.52
2022-08-19T10:03:36.306Z,9.52
2022-08-19T10:04:36.266Z,10.3
2022-08-19T10:05:36.280Z,10.3
2022-08-19T10:06:44.098Z,10.45
2022-08-19T10:07:36.761Z,10.45
2022-08-19T10:08:36.261Z,9.26
2022-08-19T10:09:36.259Z,9.26
2022-08-19T10:10:36.259Z,10.58
2022-08-19T10:11:40.623Z,10.58
2022-08-19T10:12:36.260Z,10.44
2022-08-19T10:13:36.260Z,10.44
2022-08-19T10:14:36.281Z,10.16
2022-08-19T10:15:45.234Z,10.16
2022-08-19T10:16:39.563Z,9.72
2022-08-19T10:17:36.257Z,9.72
2022-08-19T10:18:36.252Z,10.09
2022-08-19T10:19:36.242Z,10.09
2022-08-19T10:20:36.247Z,10.6
2022-08-19T10:21:36.266Z,10.6
2022-08-19T10:22:36.257Z,10.23
2022-08-19T10:23:36.244Z,10.23
2022-08-19T10:24:36.248Z,9.77
2022-08-19T10:25:36.241Z,9.77
2022-08-19T10:26:36.255Z,10.97
2022-08-19T10:27:36.242Z,10.97
2022-08-19T10:28:36.239Z,10
2022-08-19T10:29:36.234Z,10
2022-08-19T10:30:36.234Z,10.73
2022-08-19T10:31:59.835Z,10.73
2022-08-19T10:32:36.237Z,9.78
2022-08-19T10:33:40.939Z,9.78
2022-08-19T10:34:36.255Z,10.05
2022-08-19T10:35:42.796Z,10.05
2022-08-19T10:36:36.236Z,10.68
2022-08-19T10:37:36.235Z,10.68
2022-08-19T10:38:36.227Z,10.75
2022-08-19T10:39:42.474Z,10.75
2022-08-19T10:40:36.303Z,10.65
2022-08-19T10:41:36.224Z,10.65
2022-08-19T10:42:36.238Z,10.21
2022-08-19T10:43:36.224Z,10.21
2022-08-19T10:44:36.222Z,11.32
2022-08-19T10:45:36.240Z,11.32
2022-08-19T10:46:36.228Z,10.35
2022-08-19T10:47:36.244Z,10.35
2022-08-19T10:48:36.210Z,10.4
2022-08-19T10:49:36.220Z,10.4
2022-08-19T10:50:36.224Z,11.25
2022-08-19T10:51:36.229Z,11.25
2022-08-19T10:52:39.119Z,10.18
2022-08-19T10:53:36.211Z,10.18
2022-08-19T10:54:36.211Z,10.81
2022-08-19T10:55:36.210Z,10.81
2022-08-19T10:56:36.220Z,10.06
2022-08-19T10:57:59.318Z,10.06
2022-08-19T10:58:36.207Z,9.39
2022-08-19T10:59:36.390Z,9.39
2022-08-19T11:00:36.205Z,9.92
2022-08-19T11:01:36.299Z,9.92
2022-08-19T11:02:36.249Z,10.76
2022-08-19T11:03:36.243Z,10.76
2022-08-19T11:04:36.204Z,9.98
2022-08-19T11:05:39.868Z,9.98
2022-08-19T11:06:36.197Z,10.2
2022-08-19T11:07:36.195Z,10.2
2022-08-19T11:08:36.220Z,9.02
2022-08-19T11:09:36.207Z,9.02
2022-08-19T11:10:36.195Z,9.67
2022-08-19T11:11:39.352Z,9.67
2022-08-19T11:12:36.195Z,10.27
2022-08-19T11:13:36.224Z,10.27
2022-08-19T11:14:36.190Z,10.08
2022-08-19T11:15:36.179Z,10.08
2022-08-19T11:16:36.201Z,10.03
2022-08-19T11:17:36.183Z,10.03
2022-08-19T11:18:36.184Z,10.59
2022-08-19T11:19:36.182Z,10.59
2022-08-19T11:20:36.186Z,13.04
2022-08-19T11:21:36.197Z,13.04
2022-08-19T11:22:40.579Z,17.73
2022-08-19T11:23:36.189Z,17.73
2022-08-19T11:24:36.172Z,15.32
2022-08-19T11:25:36.171Z,15.32
2022-08-19T11:26:36.176Z,13.61
2022-08-19T11:27:36.172Z,13.61
2022-08-19T11:28:36.206Z,13.28
2022-08-19T11:29:36.170Z,13.28
2022-08-19T11:30:36.169Z,11.93
2022-08-19T11:31:36.161Z,11.93
2022-08-19T11:32:36.166Z,13.96
2022-08-19T11:33:36.177Z,13.96
2022-08-19T11:34:36.165Z,14.88
2022-08-19T11:35:36.161Z,14.88
2022-08-19T11:36:36.178Z,11
2022-08-19T11:37:36.165Z,11
2022-08-19T11:38:36.160Z,11.92
2022-08-19T11:39:36.210Z,11.92
2022-08-19T11:40:36.187Z,11.19
2022-08-19T11:41:36.154Z,11.19
2022-08-19T11:42:36.154Z,12.06
2022-08-19T11:43:37.602Z,12.06
2022-08-19T11:44:36.870Z,12.9
2022-08-19T11:45:36.166Z,12.9
2022-08-19T11:46:36.147Z,11.1
2022-08-19T11:47:36.149Z,11.1
2022-08-19T11:48:36.157Z,12.17
2022-08-19T11:49:36.150Z,12.17
2022-08-19T11:50:36.144Z,12.07
2022-08-19T11:51:36.159Z,12.07
2022-08-19T11:52:36.141Z,11.31
2022-08-19T11:53:36.145Z,11.31
2022-08-19T11:54:36.139Z,9.96
2022-08-19T11:55:36.139Z,9.96
2022-08-19T11:56:36.155Z,12.05
2022-08-19T11:57:36.142Z,12.05
2022-08-19T11:58:36.135Z,9.89
2022-08-19T11:59:36.181Z,9.89
2022-08-19T12:00:36.133Z,11.63
2022-08-19T12:01:36.134Z,11.63
2022-08-19T12:02:36.133Z,10.67
2022-08-19T12:03:36.210Z,10.67
2022-08-19T12:04:36.147Z,10.17
2022-08-19T12:05:36.146Z,10.17
2022-08-19T12:06:36.122Z,10.13
2022-08-19T12:07:36.190Z,10.13
2022-08-19T12:08:36.125Z,11.75
2022-08-19T12:09:36.124Z,11.75
2022-08-19T12:10:36.137Z,9.45
2022-08-19T12:11:36.115Z,9.45
2022-08-19T12:12:36.120Z,10.11
2022-08-19T12:13:36.118Z,10.11
2022-08-19T12:14:36.125Z,10.62
2022-08-19T12:15:36.924Z,10.62
2022-08-19T12:16:37.803Z,10.62
2022-08-19T12:17:36.120Z,10.62
2022-08-19T12:18:36.127Z,10.1
2022-08-19T12:19:36.113Z,10.1
2022-08-19T12:20:36.513Z,9.94
2022-08-19T12:21:36.134Z,9.94
2022-08-19T12:22:36.112Z,10.32
2022-08-19T12:23:36.110Z,10.32
2022-08-19T12:24:36.102Z,11.15
2022-08-19T12:25:36.100Z,11.15
2022-08-19T12:26:36.119Z,9.39
2022-08-19T12:27:40.785Z,9.39
2022-08-19T12:28:36.103Z,10.39
2022-08-19T12:29:36.104Z,10.39
2022-08-19T12:30:36.101Z,10.27
2022-08-19T12:31:36.111Z,10.27
2022-08-19T12:32:36.099Z,10.85
2022-08-19T12:33:36.103Z,10.85
2022-08-19T12:34:36.088Z,10.21
2022-08-19T12:35:36.097Z,10.21
2022-08-19T12:36:36.126Z,10.24
2022-08-19T12:37:36.099Z,10.24
2022-08-19T12:38:36.103Z,11.67
2022-08-19T12:39:36.214Z,11.67
2022-08-19T12:40:36.081Z,12.33
2022-08-19T12:41:36.127Z,12.33
2022-08-19T12:42:36.085Z,11.75
2022-08-19T12:43:36.087Z,11.75
2022-08-19T12:44:36.082Z,10.72
2022-08-19T12:45:36.078Z,10.72
2022-08-19T12:46:36.090Z,10.48
2022-08-19T12:47:38.790Z,10.48
2022-08-19T12:48:36.075Z,10.69
2022-08-19T12:49:53.160Z,10.69
2022-08-19T12:50:36.084Z,11.47
2022-08-19T12:51:36.074Z,11.47
2022-08-19T12:52:36.073Z,10.92
2022-08-19T12:53:39.204Z,10.92
2022-08-19T12:54:36.073Z,10.99
2022-08-19T12:55:36.067Z,10.99
2022-08-19T12:56:36.064Z,10.78
2022-08-19T12:57:36.068Z,10.78
2022-08-19T12:58:36.086Z,11.65
2022-08-19T12:59:36.067Z,11.65
2022-08-19T13:00:36.121Z,11.24
2022-08-19T13:01:36.061Z,11.24
2022-08-19T13:02:38.155Z,10.61
2022-08-19T13:03:40.347Z,10.61
2022-08-19T13:04:36.054Z,11.41
2022-08-19T13:05:37.050Z,11.41
2022-08-19T13:06:36.057Z,11.28
2022-08-19T13:07:36.071Z,11.28
2022-08-19T13:08:36.071Z,12.77
2022-08-19T13:09:36.057Z,12.77
2022-08-19T13:10:36.058Z,10.74
2022-08-19T13:11:36.063Z,10.74